Time;durP1;ratioP1;P1;durP2;ratioP2;P2;SDS_P1;SDS_P2;PMS_P1;PMS_P2;Temp;Humidity;BMP_temperature;BMP_pressure;BME280_temperature;BME280_humidity;BME280_pressure;Samples;Min_cycle;Max_cycle;Signal;HPM_P1;HPM_P2
2023/05/10 00:01:29;;;;;;;;;;;22.90;52.70;;;;;;1514190;76;924;-65
2023/05/10 00:03:30;;;;;;;;;;;22.80;52.60;;;;;;1523732;76;751;-64
2023/05/10 00:05:32;;;;;;;;;;;22.80;52.80;;;;;;1542569;76;1134;-64
2023/05/10 00:07:34;;;;;;;;;;;22.80;52.80;;;;;;1520546;76;1535;-64
2023/05/10 00:09:36;;;;;;;;;;;22.80;52.80;;;;;;1533816;76;1943;-63
2023/05/10 00:11:38;;;;;;;;;;;22.80;52.80;;;;;;1528134;76;816;-63
2023/05/10 00:13:40;;;;;;;;;;;22.80;52.80;;;;;;1538934;76;779;-63
2023/05/10 00:15:42;;;;;;;;;;;22.90;52.90;;;;;;1531861;76;1136;-63
2023/05/10 00:17:44;;;;;;;;;;;22.90;52.90;;;;;;1520809;76;744;-63
2023/05/10 00:19:46;;;;;;;;;;;22.90;52.90;;;;;;1522729;76;651;-64
2023/05/10 00:21:48;;;;;;;;;;;22.80;52.90;;;;;;1526746;76;1517;-64
2023/05/10 00:23:49;;;;;;;;;;;22.80;52.90;;;;;;1519594;76;721;-64
2023/05/10 00:25:51;;;;;;;;;;;22.80;53.00;;;;;;1521413;76;1156;-64
2023/05/10 00:27:55;;;;;;;;;;;22.90;53.10;;;;;;1536014;76;732;-64
2023/05/10 00:29:57;;;;;;;;;;;22.80;53.10;;;;;;1528833;76;1920;-64
2023/05/10 00:31:58;;;;;;;;;;;22.80;53.00;;;;;;1530217;76;722;-64
2023/05/10 00:34:00;;;;;;;;;;;22.80;53.10;;;;;;1530111;76;721;-63
2023/05/10 00:36:02;;;;;;;;;;;22.80;53.10;;;;;;1526288;76;1664;-64
2023/05/10 00:38:04;;;;;;;;;;;22.80;53.10;;;;;;1523066;76;729;-64
2023/05/10 00:40:06;;;;;;;;;;;22.80;53.00;;;;;;1525719;76;778;-64
2023/05/10 00:42:08;;;;;;;;;;;22.80;53.10;;;;;;1526661;76;770;-64
2023/05/10 00:44:10;;;;;;;;;;;22.80;53.10;;;;;;1521476;76;765;-64
2023/05/10 00:46:12;;;;;;;;;;;22.80;53.00;;;;;;1536003;76;1142;-64
2023/05/10 00:48:14;;;;;;;;;;;22.80;52.90;;;;;;1528328;76;761;-63
2023/05/10 00:50:16;;;;;;;;;;;22.80;53.00;;;;;;1519433;76;1941;-63
2023/05/10 00:52:18;;;;;;;;;;;22.80;53.20;;;;;;1523923;76;744;-62
2023/05/10 00:54:20;;;;;;;;;;;22.80;53.00;;;;;;1523039;76;746;-63
2023/05/10 00:56:23;;;;;;;;;;;22.90;53.00;;;;;;1525147;76;1096;-62
2023/05/10 00:58:27;;;;;;;;;;;22.90;52.80;;;;;;1522448;76;752;-62
2023/05/10 01:00:29;;;;;;;;;;;23.00;52.60;;;;;;1522522;76;1662;-64
2023/05/10 01:02:31;;;;;;;;;;;22.90;52.70;;;;;;1520206;76;788;-64
2023/05/10 01:04:33;;;;;;;;;;;22.90;52.70;;;;;;1533471;76;1459;-65
2023/05/10 01:06:35;;;;;;;;;;;23.00;52.60;;;;;;1525506;76;1132;-65
2023/05/10 01:08:36;;;;;;;;;;;23.00;52.60;;;;;;1522627;76;698;-65
2023/05/10 01:10:38;;;;;;;;;;;23.00;52.60;;;;;;1520980;76;1925;-64
2023/05/10 01:12:41;;;;;;;;;;;23.00;52.60;;;;;;1515419;76;757;-65
2023/05/10 01:14:43;;;;;;;;;;;23.00;52.70;;;;;;1520824;76;676;-64
2023/05/10 01:16:44;;;;;;;;;;;23.00;52.60;;;;;;1532031;76;1533;-65
2023/05/10 01:18:46;;;;;;;;;;;23.00;52.50;;;;;;1537033;76;778;-67
2023/05/10 01:20:49;;;;;;;;;;;23.10;52.40;;;;;;1526055;76;762;-66
2023/05/10 01:22:55;;;;;;;;;;;23.00;52.40;;;;;;1534029;76;743;-65
2023/05/10 01:25:08;;;;;;;;;;;23.00;52.40;;;;;;1532017;76;735;-65
2023/05/10 01:27:14;;;;;;;;;;;23.00;52.30;;;;;;1523892;76;1170;-65
2023/05/10 01:29:19;;;;;;;;;;;23.00;52.20;;;;;;1535274;76;738;-65
2023/05/10 01:31:38;;;;;;;;;;;23.00;52.10;;;;;;1522575;76;1948;-64
2023/05/10 01:33:41;;;;;;;;;;;23.00;52.00;;;;;;1521709;76;915;-65
2023/05/10 01:35:44;;;;;;;;;;;23.00;52.30;;;;;;1525054;76;1100;-64
2023/05/10 01:37:59;;;;;;;;;;;22.90;52.30;;;;;;1525038;76;702;-65
2023/05/10 01:40:03;;;;;;;;;;;22.90;52.40;;;;;;1517249;76;824;-64
2023/05/10 01:42:06;;;;;;;;;;;22.90;52.70;;;;;;1518121;76;1792;-64
2023/05/10 01:44:18;;;;;;;;;;;22.80;52.70;;;;;;1527115;76;1794;-64
2023/05/10 01:46:22;;;;;;;;;;;22.80;52.80;;;;;;1524633;76;1459;-65
2023/05/10 01:48:24;;;;;;;;;;;22.70;52.90;;;;;;1527481;76;788;-64
2023/05/10 01:50:28;;;;;;;;;;;22.80;53.10;;;;;;1516115;76;1937;-64
2023/05/10 01:52:32;;;;;;;;;;;22.70;53.20;;;;;;1522948;76;754;-64
2023/05/10 01:54:34;;;;;;;;;;;22.70;53.10;;;;;;1523591;76;1969;-65
2023/05/10 01:56:36;;;;;;;;;;;22.70;53.20;;;;;;1531440;76;1146;-65
2023/05/10 01:58:37;;;;;;;;;;;22.70;53.00;;;;;;1525344;76;710;-65
2023/05/10 02:00:41;;;;;;;;;;;22.90;53.00;;;;;;1522102;76;1658;-65
2023/05/10 02:02:45;;;;;;;;;;;22.90;52.90;;;;;;1513408;76;1832;-65
2023/05/10 02:04:46;;;;;;;;;;;22.90;52.70;;;;;;1516553;76;819;-65
2023/05/10 02:06:49;;;;;;;;;;;22.90;52.60;;;;;;1533603;76;1145;-65
2023/05/10 02:08:51;;;;;;;;;;;22.90;52.60;;;;;;1527182;76;707;-65
2023/05/10 02:10:53;;;;;;;;;;;23.00;52.50;;;;;;1515869;76;1937;-65
2023/05/10 02:12:55;;;;;;;;;;;23.00;52.50;;;;;;1530533;76;1527;-65
2023/05/10 02:14:57;;;;;;;;;;;23.00;52.30;;;;;;1527831;76;690;-65
2023/05/10 02:16:59;;;;;;;;;;;23.00;52.30;;;;;;1519500;76;1127;-65
2023/05/10 02:19:01;;;;;;;;;;;23.00;52.40;;;;;;1522373;76;810;-65
2023/05/10 02:21:03;;;;;;;;;;;23.00;52.30;;;;;;1526865;76;742;-65
2023/05/10 02:23:04;;;;;;;;;;;23.00;52.40;;;;;;1543343;74;767;-64
2023/05/10 02:25:07;;;;;;;;;;;23.00;52.60;;;;;;1547260;74;784;-65
2023/05/10 02:27:08;;;;;;;;;;;23.00;52.60;;;;;;1551734;75;1584;-64
2023/05/10 02:29:12;;;;;;;;;;;23.00;52.70;;;;;;1556481;74;675;-64
2023/05/10 02:31:13;;;;;;;;;;;22.90;52.80;;;;;;1560402;74;1936;-65
2023/05/10 02:33:15;;;;;;;;;;;22.90;52.90;;;;;;1515692;76;820;-64
2023/05/10 02:35:17;;;;;;;;;;;22.90;53.00;;;;;;1520578;76;828;-63
2023/05/10 02:37:20;;;;;;;;;;;22.90;52.80;;;;;;1516686;76;1140;-64
2023/05/10 02:39:21;;;;;;;;;;;22.90;53.00;;;;;;1522195;76;709;-64
2023/05/10 02:41:23;;;;;;;;;;;22.90;52.90;;;;;;1526943;76;1534;-64
2023/05/10 02:43:25;;;;;;;;;;;22.90;52.90;;;;;;1526515;76;764;-64
2023/05/10 02:45:29;;;;;;;;;;;22.90;52.80;;;;;;1525423;76;727;-65
2023/05/10 02:47:31;;;;;;;;;;;22.90;52.80;;;;;;1516751;76;1385;-65
2023/05/10 02:49:33;;;;;;;;;;;22.90;52.60;;;;;;1511560;76;758;-64
2023/05/10 02:51:35;;;;;;;;;;;22.90;52.80;;;;;;1522335;76;1948;-64
2023/05/10 02:53:38;;;;;;;;;;;22.90;52.80;;;;;;1517548;76;725;-64
2023/05/10 02:55:41;;;;;;;;;;;22.80;53.30;;;;;;1511831;76;1532;-64
2023/05/10 02:57:48;;;;;;;;;;;22.80;53.00;;;;;;1518052;76;737;-64
2023/05/10 02:59:51;;;;;;;;;;;22.80;53.10;;;;;;1514639;76;653;-65
2023/05/10 03:01:53;;;;;;;;;;;22.70;53.00;;;;;;1513038;76;794;-65
2023/05/10 03:03:55;;;;;;;;;;;22.80;53.00;;;;;;1520427;76;863;-65
2023/05/10 03:05:57;;;;;;;;;;;22.80;52.80;;;;;;1519777;76;1186;-65
2023/05/10 03:08:03;;;;;;;;;;;22.90;52.90;;;;;;1525223;76;722;-65
2023/05/10 03:10:03;;;;;;;;;;;22.90;52.80;;;;;;1516782;76;1659;-65
2023/05/10 03:12:09;;;;;;;;;;;22.90;52.70;;;;;;1514085;76;1933;-65
2023/05/10 03:14:18;;;;;;;;;;;22.90;52.60;;;;;;1508585;76;738;-65
2023/05/10 03:16:22;;;;;;;;;;;22.90;52.60;;;;;;1512835;76;1960;-65
2023/05/10 03:18:25;;;;;;;;;;;22.90;52.50;;;;;;1524110;76;766;-65
2023/05/10 03:20:29;;;;;;;;;;;22.90;52.50;;;;;;1517406;76;2242;-65
2023/05/10 03:22:31;;;;;;;;;;;22.90;52.50;;;;;;1503471;76;1831;-63
2023/05/10 03:24:33;;;;;;;;;;;22.90;52.40;;;;;;1519403;76;1559;-65
2023/05/10 03:26:35;;;;;;;;;;;22.90;52.40;;;;;;1527978;76;1147;-65
2023/05/10 03:28:37;;;;;;;;;;;22.90;52.40;;;;;;1517906;76;728;-65
2023/05/10 03:30:40;;;;;;;;;;;22.90;52.30;;;;;;1504677;76;1938;-64
2023/05/10 03:32:42;;;;;;;;;;;22.80;52.30;;;;;;1517272;76;714;-64
2023/05/10 03:34:44;;;;;;;;;;;22.80;52.50;;;;;;1517532;76;742;-64
2023/05/10 03:36:46;;;;;;;;;;;22.80;52.70;;;;;;1521185;76;1154;-64
2023/05/10 03:38:47;;;;;;;;;;;22.70;52.70;;;;;;1523804;76;1534;-64
2023/05/10 03:40:49;;;;;;;;;;;22.70;52.70;;;;;;1519216;76;788;-64
2023/05/10 03:42:51;;;;;;;;;;;22.70;52.80;;;;;;1512487;76;671;-64
2023/05/10 03:44:53;;;;;;;;;;;22.70;52.80;;;;;;1525281;76;752;-64
2023/05/10 03:46:56;;;;;;;;;;;22.70;52.80;;;;;;1522359;76;1162;-65
2023/05/10 03:48:59;;;;;;;;;;;22.70;52.80;;;;;;1516027;76;748;-64
2023/05/10 03:51:01;;;;;;;;;;;22.70;52.90;;;;;;1512235;76;1926;-65
2023/05/10 03:53:02;;;;;;;;;;;22.70;52.80;;;;;;1510349;76;1411;-66
2023/05/10 03:55:05;;;;;;;;;;;22.70;52.80;;;;;;1523237;76;744;-66
2023/05/10 03:57:06;;;;;;;;;;;22.70;52.90;;;;;;1525119;76;1135;-64
2023/05/10 03:59:08;;;;;;;;;;;22.70;52.80;;;;;;1524236;76;747;-64
2023/05/10 04:01:11;;;;;;;;;;;22.70;53.10;;;;;;1525520;76;894;-64
2023/05/10 04:03:13;;;;;;;;;;;22.60;53.10;;;;;;1527564;76;732;-65
2023/05/10 04:05:15;;;;;;;;;;;22.60;53.30;;;;;;1516674;76;771;-63
2023/05/10 04:07:17;;;;;;;;;;;22.60;53.20;;;;;;1519891;76;1649;-63
2023/05/10 04:09:19;;;;;;;;;;;22.70;53.30;;;;;;1521760;76;668;-63
2023/05/10 04:11:21;;;;;;;;;;;22.70;53.20;;;;;;1523109;76;1924;-63
2023/05/10 04:13:23;;;;;;;;;;;22.60;52.90;;;;;;1520980;76;783;-64
2023/05/10 04:15:25;;;;;;;;;;;22.70;53.10;;;;;;1518282;76;732;-64
2023/05/10 04:17:27;;;;;;;;;;;22.70;52.90;;;;;;1510251;76;1104;-64
2023/05/10 04:19:32;;;;;;;;;;;22.70;52.80;;;;;;1519749;76;1517;-64
2023/05/10 04:21:34;;;;;;;;;;;22.70;52.80;;;;;;1506067;76;720;-64
2023/05/10 04:23:35;;;;;;;;;;;22.70;52.80;;;;;;1524634;76;666;-63
2023/05/10 04:25:37;;;;;;;;;;;22.80;52.70;;;;;;1524721;76;1191;-64
2023/05/10 04:27:39;;;;;;;;;;;22.70;52.50;;;;;;1520237;76;754;-63
2023/05/10 04:29:41;;;;;;;;;;;22.70;52.40;;;;;;1513044;71;226256;-69
2023/05/10 04:31:43;;;;;;;;;;;22.60;52.20;;;;;;1506034;77;1931;-69
2023/05/10 04:33:45;;;;;;;;;;;22.70;52.30;;;;;;1503995;77;1543;-69
2023/05/10 04:35:47;;;;;;;;;;;22.70;52.20;;;;;;1506266;77;748;-68
2023/05/10 04:37:48;;;;;;;;;;;22.70;52.20;;;;;;1512515;77;767;-67
2023/05/10 04:39:50;;;;;;;;;;;22.60;52.40;;;;;;1480607;78;798;-67
2023/05/10 04:41:52;;;;;;;;;;;22.70;52.70;;;;;;1481683;78;720;-67
2023/05/10 04:43:54;;;;;;;;;;;22.70;52.60;;;;;;1484120;78;814;-68
2023/05/10 04:45:59;;;;;;;;;;;22.60;52.50;;;;;;1474142;78;733;-69
2023/05/10 04:48:01;;;;;;;;;;;22.70;52.50;;;;;;1506408;77;1439;-70
2023/05/10 04:50:05;;;;;;;;;;;22.70;52.60;;;;;;1502297;77;718;-69
2023/05/10 04:52:07;;;;;;;;;;;22.70;52.40;;;;;;1502717;77;1926;-68
2023/05/10 04:54:08;;;;;;;;;;;22.70;52.20;;;;;;1504694;77;755;-70
2023/05/10 04:56:10;;;;;;;;;;;22.80;52.10;;;;;;1511254;77;821;-66
2023/05/10 04:58:12;;;;;;;;;;;22.80;52.10;;;;;;1503887;77;1127;-67
2023/05/10 05:00:15;;;;;;;;;;;22.80;51.90;;;;;;1513142;77;714;-68
2023/05/10 05:02:16;;;;;;;;;;;22.90;51.90;;;;;;1508618;77;1308;-69
2023/05/10 05:04:18;;;;;;;;;;;22.80;52.00;;;;;;1504638;77;968;-69
2023/05/10 05:06:26;;;;;;;;;;;22.80;52.40;;;;;;1502730;77;735;-66
2023/05/10 05:08:24;;;;;;;;;;;22.70;52.60;;;;;;1505733;77;1584;-69
2023/05/10 05:10:26;;;;;;;;;;;22.70;52.10;;;;;;1508332;77;694;-67
2023/05/10 05:12:28;;;;;;;;;;;22.70;51.70;;;;;;1505629;77;1939;-68
2023/05/10 05:14:29;;;;;;;;;;;22.60;51.20;;;;;;1510391;77;663;-68
2023/05/10 05:16:32;;;;;;;;;;;22.70;50.90;;;;;;1506874;77;1462;-66
2023/05/10 05:18:34;;;;;;;;;;;22.60;50.60;;;;;;1506904;77;1162;-67
2023/05/10 05:20:36;;;;;;;;;;;22.60;50.30;;;;;;1504979;77;708;-66
2023/05/10 05:22:38;;;;;;;;;;;22.60;50.40;;;;;;1504044;77;723;-67
2023/05/10 05:24:39;;;;;;;;;;;22.60;50.30;;;;;;1501361;77;820;-69
2023/05/10 05:26:41;;;;;;;;;;;22.60;50.10;;;;;;1515224;77;612;-67
2023/05/10 05:28:43;;;;;;;;;;;22.60;50.10;;;;;;1503118;77;1176;-68
2023/05/10 05:30:45;;;;;;;;;;;22.60;50.00;;;;;;1504788;77;1436;-68
2023/05/10 05:32:47;;;;;;;;;;;22.60;50.00;;;;;;1509387;77;1943;-67
2023/05/10 05:34:49;;;;;;;;;;;22.60;50.00;;;;;;1504984;77;751;-67
2023/05/10 05:36:51;;;;;;;;;;;22.60;49.90;;;;;;1503825;77;703;-69
2023/05/10 05:38:52;;;;;;;;;;;22.60;49.70;;;;;;1502985;77;1205;-68
2023/05/10 05:40:54;;;;;;;;;;;22.60;49.60;;;;;;1504590;77;754;-69
2023/05/10 05:42:56;;;;;;;;;;;22.60;49.30;;;;;;1505686;77;759;-67
2023/05/10 05:44:58;;;;;;;;;;;22.60;49.90;;;;;;1508727;77;1466;-68
2023/05/10 05:47:00;;;;;;;;;;;22.60;50.00;;;;;;1507696;77;722;-68
2023/05/10 05:49:02;;;;;;;;;;;22.60;49.80;;;;;;1504176;77;1127;-68
2023/05/10 05:51:04;;;;;;;;;;;22.60;49.60;;;;;;1503849;77;699;-70
2023/05/10 05:53:06;;;;;;;;;;;22.50;49.70;;;;;;1505453;77;1946;-70
2023/05/10 05:55:08;;;;;;;;;;;22.50;49.40;;;;;;1502447;77;704;-70
2023/05/10 05:57:10;;;;;;;;;;;22.50;49.50;;;;;;1508463;77;649;-68
2023/05/10 05:59:11;;;;;;;;;;;22.50;49.50;;;;;;1503441;77;1597;-71
2023/05/10 06:01:13;;;;;;;;;;;22.60;49.50;;;;;;1506660;77;753;-67
2023/05/10 06:03:15;;;;;;;;;;;22.60;49.40;;;;;;1506654;77;723;-73
2023/05/10 06:05:17;;;;;;;;;;;22.60;49.20;;;;;;1499830;77;805;-67
2023/05/10 06:07:19;;;;;;;;;;;22.50;49.10;;;;;;1506157;77;656;-71
2023/05/10 06:09:21;;;;;;;;;;;22.60;49.00;;;;;;1509572;76;1128;-68
2023/05/10 06:11:23;;;;;;;;;;;22.60;48.90;;;;;;1504646;77;711;-69
2023/05/10 06:13:31;;;;;;;;;;;22.60;48.70;;;;;;1504805;77;1908;-68
2023/05/10 06:15:29;;;;;;;;;;;22.60;48.80;;;;;;1499563;77;1443;-69
2023/05/10 06:17:31;;;;;;;;;;;22.60;48.80;;;;;;1504360;77;736;-68
2023/05/10 06:19:32;;;;;;;;;;;22.60;48.80;;;;;;1513558;76;1102;-66
2023/05/10 06:21:34;;;;;;;;;;;22.60;48.80;;;;;;1494675;77;729;-64
2023/05/10 06:23:36;;;;;;;;;;;22.60;48.70;;;;;;1504933;77;755;-64
2023/05/10 06:25:38;;;;;;;;;;;22.60;48.70;;;;;;1498755;77;777;-66
2023/05/10 06:27:40;;;;;;;;;;;22.60;48.60;;;;;;1503943;77;1217;-69
2023/05/10 06:29:42;;;;;;;;;;;22.60;48.50;;;;;;1505954;77;1159;-65
2023/05/10 06:31:44;;;;;;;;;;;22.60;48.40;;;;;;1503671;77;1939;-65
2023/05/10 06:33:46;;;;;;;;;;;22.60;48.40;;;;;;1505483;77;799;-71
2023/05/10 06:35:48;;;;;;;;;;;22.60;48.30;;;;;;1504997;77;722;-66
2023/05/10 06:37:49;;;;;;;;;;;22.60;48.20;;;;;;1505636;77;1181;-66
2023/05/10 06:39:52;;;;;;;;;;;22.60;48.20;;;;;;1505524;77;731;-65
2023/05/10 06:41:54;;;;;;;;;;;22.60;48.20;;;;;;1501727;77;1526;-66
2023/05/10 06:43:56;;;;;;;;;;;22.60;48.20;;;;;;1503612;77;593;-64
2023/05/10 06:45:58;;;;;;;;;;;22.60;48.20;;;;;;1504142;77;746;-67
2023/05/10 06:48:00;;;;;;;;;;;22.60;48.40;;;;;;1516957;77;1100;-67
2023/05/10 06:50:03;;;;;;;;;;;22.50;48.50;;;;;;1506368;77;733;-65
2023/05/10 06:52:05;;;;;;;;;;;22.60;48.50;;;;;;1506035;77;1906;-65
2023/05/10 06:54:07;;;;;;;;;;;22.50;48.60;;;;;;1504348;77;791;-66
2023/05/10 06:56:08;;;;;;;;;;;22.50;48.70;;;;;;1508584;77;1712;-64
2023/05/10 06:58:10;;;;;;;;;;;22.50;48.80;;;;;;1508731;77;1165;-66
2023/05/10 07:00:12;;;;;;;;;;;22.60;48.90;;;;;;1503437;77;668;-67
2023/05/10 07:02:14;;;;;;;;;;;22.50;48.90;;;;;;1517031;77;624;-67
2023/05/10 07:04:17;;;;;;;;;;;22.50;48.80;;;;;;1513025;77;818;-68
2023/05/10 07:06:19;;;;;;;;;;;22.50;48.80;;;;;;1505015;77;617;-67
2023/05/10 07:08:21;;;;;;;;;;;22.50;48.70;;;;;;1504533;77;1463;-67
2023/05/10 07:10:23;;;;;;;;;;;22.50;48.70;;;;;;1505479;77;751;-66
2023/05/10 07:12:25;;;;;;;;;;;22.50;48.60;;;;;;1503870;77;1919;-67
2023/05/10 07:14:27;;;;;;;;;;;22.50;48.50;;;;;;1505618;77;706;-68
2023/05/10 07:16:28;;;;;;;;;;;22.50;48.30;;;;;;1501291;77;677;-66
2023/05/10 07:18:30;;;;;;;;;;;22.50;48.20;;;;;;1505882;77;1155;-68
2023/05/10 07:20:32;;;;;;;;;;;22.50;48.10;;;;;;1508742;77;769;-65
2023/05/10 07:22:34;;;;;;;;;;;22.50;48.10;;;;;;1517791;77;1462;-67
2023/05/10 07:24:36;;;;;;;;;;;22.50;48.30;;;;;;1502978;77;621;-64
2023/05/10 07:26:38;;;;;;;;;;;22.50;48.40;;;;;;1501036;77;748;-65
2023/05/10 07:28:40;;;;;;;;;;;22.50;48.90;;;;;;1514060;77;1179;-66
2023/05/10 07:30:42;;;;;;;;;;;22.50;48.60;;;;;;1505390;77;776;-65
2023/05/10 07:32:43;;;;;;;;;;;22.50;48.60;;;;;;1509431;77;1937;-68
2023/05/10 07:34:46;;;;;;;;;;;22.50;48.80;;;;;;1486037;78;745;-68
2023/05/10 07:36:47;;;;;;;;;;;22.50;48.80;;;;;;1487448;78;1425;-69
2023/05/10 07:38:49;;;;;;;;;;;22.50;48.90;;;;;;1482546;78;1146;-66
2023/05/10 07:40:51;;;;;;;;;;;22.50;49.00;;;;;;1505420;77;750;-65
2023/05/10 07:42:53;;;;;;;;;;;22.50;49.10;;;;;;1505525;77;747;-62
2023/05/10 07:44:55;;;;;;;;;;;22.60;49.10;;;;;;1505426;77;685;-67
2023/05/10 07:46:57;;;;;;;;;;;22.60;49.20;;;;;;1505127;77;730;-65
2023/05/10 07:48:59;;;;;;;;;;;22.60;49.50;;;;;;1507220;77;1156;-65
2023/05/10 07:51:00;;;;;;;;;;;22.50;49.50;;;;;;1504503;77;1462;-66
2023/05/10 07:53:02;;;;;;;;;;;22.60;49.50;;;;;;1510656;77;1931;-67
2023/05/10 07:55:05;;;;;;;;;;;22.50;50.10;;;;;;1510127;77;935;-65
2023/05/10 07:57:07;;;;;;;;;;;22.50;50.00;;;;;;1509256;77;681;-68
2023/05/10 07:59:09;;;;;;;;;;;22.40;49.80;;;;;;1501572;77;1096;-65
2023/05/10 08:01:11;;;;;;;;;;;22.50;49.90;;;;;;1507787;77;757;-70
2023/05/10 08:03:13;;;;;;;;;;;22.50;49.90;;;;;;1503033;77;659;-64
2023/05/10 08:05:14;;;;;;;;;;;22.50;50.00;;;;;;1505387;77;1454;-67
2023/05/10 08:07:16;;;;;;;;;;;22.50;50.10;;;;;;1509718;77;813;-67
2023/05/10 08:09:23;;;;;;;;;;;22.60;50.10;;;;;;1494243;77;1132;-68
2023/05/10 08:11:22;;;;;;;;;;;22.60;50.10;;;;;;1505944;77;1570;-69
2023/05/10 08:13:24;;;;;;;;;;;22.60;50.00;;;;;;1509085;77;1934;-70
2023/05/10 08:15:25;;;;;;;;;;;22.60;50.10;;;;;;1503505;77;761;-66
2023/05/10 08:17:27;;;;;;;;;;;22.70;50.20;;;;;;1508190;77;742;-69
2023/05/10 08:19:29;;;;;;;;;;;22.60;50.20;;;;;;1506236;77;1524;-67
2023/05/10 08:21:31;;;;;;;;;;;22.60;50.30;;;;;;1504637;77;703;-68
2023/05/10 08:23:33;;;;;;;;;;;22.70;50.30;;;;;;1500786;77;836;-68
2023/05/10 08:25:35;;;;;;;;;;;22.60;50.30;;;;;;1495232;77;674;-69
2023/05/10 08:27:37;;;;;;;;;;;22.70;50.40;;;;;;1504031;77;716;-70
2023/05/10 08:29:39;;;;;;;;;;;22.70;50.30;;;;;;1504501;77;1127;-67
2023/05/10 08:31:41;;;;;;;;;;;22.60;50.20;;;;;;1504412;77;1142;-66
2023/05/10 08:33:43;;;;;;;;;;;22.60;50.30;;;;;;1503217;77;1933;-68
2023/05/10 08:35:44;;;;;;;;;;;22.60;50.20;;;;;;1505448;77;637;-67
2023/05/10 08:37:46;;;;;;;;;;;22.70;50.30;;;;;;1507132;77;784;-68
2023/05/10 08:39:48;;;;;;;;;;;22.60;50.30;;;;;;1505815;77;1091;-68
2023/05/10 08:41:51;;;;;;;;;;;22.70;50.30;;;;;;1507675;77;711;-69
2023/05/10 08:43:53;;;;;;;;;;;22.70;50.40;;;;;;1504636;77;731;-68
2023/05/10 08:45:56;;;;;;;;;;;22.60;50.40;;;;;;1504210;77;760;-68
2023/05/10 08:47:58;;;;;;;;;;;22.70;50.50;;;;;;1497420;77;1419;-66
2023/05/10 08:50:00;;;;;;;;;;;22.60;50.40;;;;;;1503294;77;736;-68
2023/05/10 08:52:05;;;;;;;;;;;22.70;50.50;;;;;;1504033;77;696;-67
2023/05/10 08:54:07;;;;;;;;;;;22.70;50.40;;;;;;1505288;77;1919;-66
2023/05/10 08:56:09;;;;;;;;;;;22.70;50.40;;;;;;1501032;77;807;-67
2023/05/10 08:58:10;;;;;;;;;;;22.70;50.40;;;;;;1516411;76;1147;-66
2023/05/10 09:00:13;;;;;;;;;;;22.70;50.40;;;;;;1504817;77;708;-67
2023/05/10 09:02:15;;;;;;;;;;;22.70;50.40;;;;;;1504368;77;1347;-68
2023/05/10 09:04:17;;;;;;;;;;;22.70;50.40;;;;;;1503385;77;728;-67
2023/05/10 09:06:18;;;;;;;;;;;22.70;50.50;;;;;;1507790;77;723;-67
2023/05/10 09:08:20;;;;;;;;;;;22.80;50.50;;;;;;1498080;77;1143;-67
2023/05/10 09:10:22;;;;;;;;;;;22.70;50.40;;;;;;1509900;77;776;-70
2023/05/10 09:12:24;;;;;;;;;;;22.70;50.50;;;;;;1506327;77;746;-70
2023/05/10 09:14:26;;;;;;;;;;;22.80;50.50;;;;;;1506717;77;1928;-67
2023/05/10 09:16:28;;;;;;;;;;;22.80;50.50;;;;;;1500218;77;1437;-67
2023/05/10 09:18:30;;;;;;;;;;;22.90;50.50;;;;;;1508538;77;1135;-69
2023/05/10 09:20:32;;;;;;;;;;;22.90;50.50;;;;;;1504646;77;718;-68
2023/05/10 09:22:34;;;;;;;;;;;22.80;50.50;;;;;;1506072;77;678;-66
2023/05/10 09:24:42;;;;;;;;;;;22.80;50.50;;;;;;1507801;77;1053;-67
2023/05/10 09:26:48;;;;;;;;;;;22.80;50.50;;;;;;1505070;77;1549;-68
2023/05/10 09:28:52;;;;;;;;;;;22.80;50.50;;;;;;1509450;77;1140;-68
2023/05/10 09:30:55;;;;;;;;;;;22.90;50.60;;;;;;1503728;77;960;-69
2023/05/10 09:32:58;;;;;;;;;;;22.90;50.60;;;;;;1504135;77;1919;-68
2023/05/10 09:35:02;;;;;;;;;;;22.90;50.50;;;;;;1507339;77;1706;-68
2023/05/10 09:37:04;;;;;;;;;;;22.70;50.50;;;;;;1505115;77;1984;-70
2023/05/10 09:39:06;;;;;;;;;;;22.80;50.50;;;;;;1502546;77;1194;-68
2023/05/10 09:41:09;;;;;;;;;;;22.70;50.50;;;;;;1509742;77;950;-67
2023/05/10 09:43:11;;;;;;;;;;;22.80;50.50;;;;;;1509479;77;1532;-68
2023/05/10 09:45:13;;;;;;;;;;;22.80;50.50;;;;;;1504659;77;703;-68
2023/05/10 09:47:23;;;;;;;;;;;22.90;50.50;;;;;;1506200;77;771;-70
2023/05/10 09:49:22;;;;;;;;;;;22.90;50.50;;;;;;1503241;77;1185;-69
2023/05/10 09:51:24;;;;;;;;;;;22.90;50.50;;;;;;1503751;77;782;-69
2023/05/10 09:53:26;;;;;;;;;;;22.90;50.50;;;;;;1503839;77;1929;-67
2023/05/10 09:55:38;;;;;;;;;;;22.80;50.50;;;;;;1504374;77;708;-67
2023/05/10 09:57:40;;;;;;;;;;;22.90;50.60;;;;;;1502827;77;1370;-68
2023/05/10 09:59:44;;;;;;;;;;;22.70;50.50;;;;;;1503650;77;1136;-67
2023/05/10 10:01:51;;;;;;;;;;;22.80;50.50;;;;;;1501717;77;1466;-69
2023/05/10 10:03:53;;;;;;;;;;;22.90;50.60;;;;;;1501341;77;718;-68
2023/05/10 10:05:55;;;;;;;;;;;22.90;50.50;;;;;;1509445;77;729;-68
2023/05/10 10:07:57;;;;;;;;;;;22.90;50.50;;;;;;1510962;77;1167;-67
2023/05/10 10:09:59;;;;;;;;;;;23.00;50.50;;;;;;1506963;77;797;-69
2023/05/10 10:12:01;;;;;;;;;;;22.90;50.50;;;;;;1511160;77;1457;-68
2023/05/10 10:14:03;;;;;;;;;;;22.90;50.50;;;;;;1502866;77;1933;-69
2023/05/10 10:16:05;;;;;;;;;;;22.90;50.50;;;;;;1496272;77;721;-68
2023/05/10 10:18:07;;;;;;;;;;;22.90;50.40;;;;;;1506966;77;1140;-69
2023/05/10 10:20:09;;;;;;;;;;;22.90;50.40;;;;;;1508364;77;593;-67
2023/05/10 10:22:11;;;;;;;;;;;22.90;50.40;;;;;;1506142;77;767;-67
2023/05/10 10:24:13;;;;;;;;;;;22.90;50.30;;;;;;1504644;77;775;-68
2023/05/10 10:26:15;;;;;;;;;;;22.90;50.40;;;;;;1503369;77;1460;-68
2023/05/10 10:28:37;;;;;;;;;;;22.90;50.40;;;;;;1505791;77;1158;-69
2023/05/10 10:30:42;;;;;;;;;;;23.00;50.40;;;;;;1436547;81;1003;-69
2023/05/10 10:32:46;;;;;;;;;;;22.90;50.40;;;;;;1435496;81;958;-69
2023/05/10 10:34:48;;;;;;;;;;;22.80;50.30;;;;;;1434680;81;1910;-70
2023/05/10 10:36:50;;;;;;;;;;;22.90;50.50;;;;;;1486207;77;946;-69
2023/05/10 10:38:57;;;;;;;;;;;22.90;50.40;;;;;;1501743;77;1319;-69
2023/05/10 10:41:03;;;;;;;;;;;22.90;50.50;;;;;;1510185;77;1574;-66
2023/05/10 10:43:24;;;;;;;;;;;23.00;50.40;;;;;;1502510;77;768;-68
2023/05/10 10:45:26;;;;;;;;;;;22.90;50.40;;;;;;1503510;77;815;-70
2023/05/10 10:47:32;;;;;;;;;;;22.80;50.40;;;;;;1502939;77;675;-68
2023/05/10 10:49:33;;;;;;;;;;;22.90;50.50;;;;;;1503303;77;1145;-69
2023/05/10 10:51:38;;;;;;;;;;;22.90;50.40;;;;;;1512259;77;681;-68
2023/05/10 10:53:40;;;;;;;;;;;22.90;50.40;;;;;;1503458;77;1916;-72
2023/05/10 10:55:48;;;;;;;;;;;22.90;50.40;;;;;;1516747;77;737;-70
2023/05/10 10:57:51;;;;;;;;;;;22.90;50.50;;;;;;1511676;77;771;-70
2023/05/10 11:00:01;;;;;;;;;;;22.90;50.50;;;;;;1502118;77;756;-70
2023/05/10 11:02:03;;;;;;;;;;;22.80;50.40;;;;;;1487021;77;989;-71
2023/05/10 11:04:06;;;;;;;;;;;22.80;50.40;;;;;;1504742;77;777;-69
2023/05/10 11:06:08;;;;;;;;;;;22.90;50.50;;;;;;1505404;77;757;-69
2023/05/10 11:08:17;;;;;;;;;;;22.90;50.50;;;;;;1506083;77;1576;-69
2023/05/10 11:10:22;;;;;;;;;;;22.90;50.50;;;;;;1507842;77;777;-70
2023/05/10 11:12:24;;;;;;;;;;;22.90;50.50;;;;;;1504702;77;803;-72
2023/05/10 11:14:25;;;;;;;;;;;22.90;50.50;;;;;;1503491;77;1933;-70
2023/05/10 11:16:27;;;;;;;;;;;22.90;50.60;;;;;;1504903;77;821;-73
2023/05/10 11:18:30;;;;;;;;;;;22.90;50.50;;;;;;1501752;77;1200;-68
2023/05/10 11:20:33;;;;;;;;;;;22.90;50.50;;;;;;1508743;77;787;-69
2023/05/10 11:22:40;;;;;;;;;;;22.90;50.50;;;;;;1506790;77;1538;-70
2023/05/10 11:24:42;;;;;;;;;;;22.90;50.70;;;;;;1509783;77;961;-70
2023/05/10 11:26:44;;;;;;;;;;;22.90;50.70;;;;;;1482362;78;1193;-69
2023/05/10 11:28:46;;;;;;;;;;;22.90;50.70;;;;;;1482006;78;1149;-72
2023/05/10 11:30:48;;;;;;;;;;;22.80;50.70;;;;;;1461632;80;816;-69
2023/05/10 11:32:50;;;;;;;;;;;22.90;50.90;;;;;;1458621;80;813;-73
2023/05/10 11:34:52;;;;;;;;;;;22.90;50.90;;;;;;1501239;77;1912;-69
2023/05/10 11:36:54;;;;;;;;;;;22.90;51.00;;;;;;1507976;77;1449;-70
2023/05/10 11:38:56;;;;;;;;;;;22.90;51.00;;;;;;1521140;77;1190;-72
2023/05/10 11:40:58;;;;;;;;;;;22.90;51.00;;;;;;1508199;77;730;-69
2023/05/10 11:43:00;;;;;;;;;;;23.00;51.00;;;;;;1504064;77;800;-69
2023/05/10 11:45:02;;;;;;;;;;;22.90;51.00;;;;;;1505680;77;719;-70
2023/05/10 11:47:04;;;;;;;;;;;23.00;51.10;;;;;;1504952;77;744;-69
2023/05/10 11:49:06;;;;;;;;;;;22.90;51.10;;;;;;1505753;77;1132;-69
2023/05/10 11:51:08;;;;;;;;;;;22.90;51.10;;;;;;1487706;78;1444;-70
2023/05/10 11:53:10;;;;;;;;;;;22.90;51.10;;;;;;1507045;77;799;-71
2023/05/10 11:55:12;;;;;;;;;;;22.90;51.10;;;;;;1504856;77;1929;-70
2023/05/10 11:57:14;;;;;;;;;;;22.90;51.20;;;;;;1506006;77;730;-70
2023/05/10 11:59:16;;;;;;;;;;;22.90;51.20;;;;;;1509435;77;1135;-71
2023/05/10 12:01:18;;;;;;;;;;;22.90;51.20;;;;;;1502421;77;693;-70
2023/05/10 12:03:20;;;;;;;;;;;22.90;51.30;;;;;;1503945;77;695;-69
2023/05/10 12:05:22;;;;;;;;;;;22.90;51.30;;;;;;1504274;77;1462;-69
2023/05/10 12:07:24;;;;;;;;;;;22.90;51.30;;;;;;1510559;77;734;-70
2023/05/10 12:09:26;;;;;;;;;;;22.90;51.30;;;;;;1517151;77;1141;-67
2023/05/10 12:11:28;;;;;;;;;;;22.90;51.30;;;;;;1502227;78;980;-69